DLA7CV LIPQ-EDDF
Flight info
| Callsign | DLA7CV |
|---|---|
| Flight time | 1h 10m |
| Altitude | 30000 |
| Route | RIFEN DCT PESUT DCT SIMBA DCT AKINI T161 REDNI/N0368F280 T161 ASPAT/N0357F260 T161 DEBHI DEBHI1B |
| Aircraft | E190/M-SDE2E3GIJ1RWY/LB1 |
Departure
| Time | 2026-04-16 12:56 |
|---|---|
| Airport | Trieste Airport (LIPQ) |
Arrival
| Time | 2026-04-16 14:06 |
|---|---|
| Airport | Frankfurt Main Airport (EDDF) |
| Time | Latitude | Longitude | Altitude | Speed | Heading |
|---|---|---|---|---|---|
| 2026-04-16 12:41 | 45.82197 | 13.48483 | 44 ft | 0 kts | 170° |
| 2026-04-16 12:46 | 45.82204 | 13.48481 | 44 ft | 4 kts | 169° |
| 2026-04-16 12:46 | 45.82230 | 13.48473 | 44 ft | 4 kts | 162° |
| 2026-04-16 12:46 | 45.82255 | 13.48458 | 42 ft | 4 kts | 146° |
| 2026-04-16 12:46 | 45.82271 | 13.48434 | 44 ft | 4 kts | 92° |
| 2026-04-16 12:47 | 45.82272 | 13.48426 | 42 ft | 3 kts | 80° |
| 2026-04-16 12:51 | 45.82274 | 13.48444 | 44 ft | 4 kts | 80° |
| 2026-04-16 12:51 | 45.82280 | 13.48498 | 44 ft | 7 kts | 80° |
| 2026-04-16 12:52 | 45.82303 | 13.48562 | 43 ft | 8 kts | 33° |
| 2026-04-16 12:52 | 45.82373 | 13.48573 | 44 ft | 11 kts | 0° |
| 2026-04-16 12:52 | 45.82458 | 13.48573 | 44 ft | 13 kts | 0° |
| 2026-04-16 12:52 | 45.82557 | 13.48574 | 44 ft | 15 kts | 0° |
| 2026-04-16 12:53 | 45.82652 | 13.48576 | 44 ft | 0 kts | 0° |
| 2026-04-16 12:53 | 45.82653 | 13.48576 | 44 ft | 0 kts | 0° |
| 2026-04-16 12:53 | 45.82668 | 13.48576 | 44 ft | 5 kts | 0° |
| 2026-04-16 12:53 | 45.82723 | 13.48577 | 43 ft | 10 kts | 0° |
| 2026-04-16 12:54 | 45.82776 | 13.48546 | 42 ft | 8 kts | 283° |
| 2026-04-16 12:54 | 45.82776 | 13.48525 | 42 ft | 0 kts | 269° |
| 2026-04-16 12:55 | 45.82776 | 13.48491 | 42 ft | 19 kts | 269° |
| 2026-04-16 12:55 | 45.82782 | 13.47905 | 43 ft | 97 kts | 271° |
| 2026-04-16 12:56 | 45.82793 | 13.46599 | 75 ft | 160 kts | 270° |
| 2026-04-16 12:56 | 45.82778 | 13.44986 | 721 ft | 173 kts | 266° |
| 2026-04-16 12:56 | 45.82727 | 13.43209 | 1410 ft | 182 kts | 265° |
| 2026-04-16 12:56 | 45.82705 | 13.41328 | 2079 ft | 194 kts | 270° |
| 2026-04-16 12:57 | 45.82753 | 13.39350 | 2794 ft | 203 kts | 271° |
| 2026-04-16 12:57 | 45.82791 | 13.37251 | 3429 ft | 216 kts | 271° |
| 2026-04-16 12:57 | 45.82811 | 13.35044 | 3996 ft | 231 kts | 270° |
| 2026-04-16 12:57 | 45.82822 | 13.32587 | 4290 ft | 263 kts | 270° |
| 2026-04-16 12:58 | 45.82996 | 13.29891 | 4837 ft | 279 kts | 287° |
| 2026-04-16 12:58 | 45.83841 | 13.27374 | 5657 ft | 282 kts | 306° |
| 2026-04-16 12:58 | 45.85292 | 13.25528 | 6488 ft | 281 kts | 336° |
| 2026-04-16 12:58 | 45.87183 | 13.25031 | 7327 ft | 278 kts | 6° |
| 2026-04-16 12:59 | 45.89014 | 13.25837 | 8187 ft | 276 kts | 31° |
| 2026-04-16 12:59 | 45.90552 | 13.27419 | 9002 ft | 277 kts | 40° |
| 2026-04-16 12:59 | 45.92041 | 13.29210 | 9750 ft | 282 kts | 41° |
| 2026-04-16 13:00 | 45.95165 | 13.33007 | 10610 ft | 313 kts | 41° |
| 2026-04-16 13:00 | 45.96858 | 13.35143 | 10883 ft | 332 kts | 41° |
| 2026-04-16 13:00 | 45.98596 | 13.37407 | 11367 ft | 341 kts | 42° |
| 2026-04-16 13:00 | 46.00433 | 13.39581 | 11985 ft | 344 kts | 31° |
| 2026-04-16 13:01 | 46.02686 | 13.40642 | 12660 ft | 344 kts | 4° |
| 2026-04-16 13:01 | 46.05078 | 13.40465 | 13269 ft | 346 kts | 351° |
| 2026-04-16 13:01 | 46.07437 | 13.39885 | 13838 ft | 350 kts | 350° |
| 2026-04-16 13:01 | 46.09860 | 13.39376 | 14415 ft | 353 kts | 352° |
| 2026-04-16 13:02 | 46.12311 | 13.38958 | 14997 ft | 356 kts | 353° |
| 2026-04-16 13:02 | 46.14784 | 13.38575 | 15577 ft | 359 kts | 353° |
| 2026-04-16 13:02 | 46.17278 | 13.38204 | 16131 ft | 362 kts | 353° |
| 2026-04-16 13:02 | 46.19793 | 13.37832 | 16677 ft | 365 kts | 353° |
| 2026-04-16 13:03 | 46.22332 | 13.37461 | 17233 ft | 367 kts | 353° |
| 2026-04-16 13:03 | 46.24886 | 13.37087 | 17744 ft | 371 kts | 353° |
| 2026-04-16 13:03 | 46.27464 | 13.36701 | 18272 ft | 374 kts | 353° |
| 2026-04-16 13:03 | 46.30059 | 13.36310 | 18833 ft | 376 kts | 353° |
| 2026-04-16 13:04 | 46.32673 | 13.35913 | 19377 ft | 380 kts | 353° |
| 2026-04-16 13:04 | 46.35318 | 13.35508 | 19826 ft | 385 kts | 353° |
| 2026-04-16 13:04 | 46.37963 | 13.35086 | 20616 ft | 382 kts | 353° |
| 2026-04-16 13:04 | 46.40605 | 13.34689 | 21180 ft | 383 kts | 353° |
| 2026-04-16 13:05 | 46.43261 | 13.34280 | 21672 ft | 386 kts | 352° |
| 2026-04-16 13:05 | 46.45941 | 13.33852 | 22133 ft | 389 kts | 352° |
| 2026-04-16 13:05 | 46.48643 | 13.33423 | 22553 ft | 392 kts | 352° |
| 2026-04-16 13:05 | 46.51357 | 13.32983 | 22998 ft | 394 kts | 352° |
| 2026-04-16 13:06 | 46.54089 | 13.32535 | 23253 ft | 397 kts | 352° |
| 2026-04-16 13:06 | 46.56855 | 13.32065 | 23526 ft | 402 kts | 352° |
| 2026-04-16 13:06 | 46.59647 | 13.31592 | 23889 ft | 405 kts | 352° |
| 2026-04-16 13:06 | 46.62415 | 13.31134 | 24271 ft | 407 kts | 352° |
| 2026-04-16 13:07 | 46.65241 | 13.30666 | 24640 ft | 410 kts | 352° |
| 2026-04-16 13:07 | 46.68083 | 13.30191 | 25019 ft | 412 kts | 352° |
| 2026-04-16 13:07 | 46.70934 | 13.29715 | 25431 ft | 413 kts | 352° |
| 2026-04-16 13:07 | 46.73796 | 13.29235 | 25824 ft | 416 kts | 352° |
| 2026-04-16 13:08 | 46.76681 | 13.28744 | 26161 ft | 418 kts | 352° |
| 2026-04-16 13:08 | 46.79578 | 13.28246 | 26513 ft | 420 kts | 352° |
| 2026-04-16 13:08 | 46.82491 | 13.27743 | 26843 ft | 422 kts | 351° |
| 2026-04-16 13:08 | 46.85410 | 13.27236 | 27122 ft | 424 kts | 351° |
| 2026-04-16 13:09 | 46.88349 | 13.26720 | 27408 ft | 426 kts | 351° |
| 2026-04-16 13:09 | 46.91294 | 13.26204 | 27705 ft | 427 kts | 351° |
| 2026-04-16 13:09 | 46.94217 | 13.25690 | 27967 ft | 430 kts | 351° |
| 2026-04-16 13:09 | 46.97197 | 13.25160 | 28236 ft | 431 kts | 351° |
| 2026-04-16 13:10 | 47.00183 | 13.24629 | 28484 ft | 433 kts | 351° |
| 2026-04-16 13:10 | 47.03179 | 13.24096 | 28743 ft | 434 kts | 351° |
| 2026-04-16 13:10 | 47.06186 | 13.23557 | 28966 ft | 436 kts | 351° |
| 2026-04-16 13:10 | 47.09199 | 13.23014 | 29223 ft | 437 kts | 351° |
| 2026-04-16 13:11 | 47.12213 | 13.22474 | 29545 ft | 436 kts | 351° |
| 2026-04-16 13:11 | 47.15220 | 13.21936 | 29836 ft | 435 kts | 351° |
| 2026-04-16 13:11 | 47.18221 | 13.21396 | 30161 ft | 433 kts | 350° |
| 2026-04-16 13:11 | 47.21162 | 13.20868 | 30275 ft | 417 kts | 350° |
| 2026-04-16 13:12 | 47.23971 | 13.20342 | 30238 ft | 398 kts | 350° |
| 2026-04-16 13:12 | 47.26655 | 13.19832 | 30241 ft | 381 kts | 349° |
| 2026-04-16 13:12 | 47.29225 | 13.19343 | 30241 ft | 374 kts | 349° |
| 2026-04-16 13:13 | 47.34441 | 13.18355 | 30265 ft | 381 kts | 349° |
| 2026-04-16 13:13 | 47.39708 | 13.17359 | 30254 ft | 381 kts | 349° |
| 2026-04-16 13:14 | 47.44970 | 13.16366 | 30241 ft | 381 kts | 349° |
| 2026-04-16 13:14 | 47.50238 | 13.15366 | 30236 ft | 382 kts | 349° |
| 2026-04-16 13:15 | 47.55507 | 13.14367 | 30281 ft | 382 kts | 349° |
| 2026-04-16 13:15 | 47.60770 | 13.13363 | 30230 ft | 381 kts | 349° |
| 2026-04-16 13:16 | 47.66027 | 13.12362 | 30241 ft | 382 kts | 349° |
| 2026-04-16 13:16 | 47.71259 | 13.11362 | 30238 ft | 381 kts | 349° |
| 2026-04-16 13:17 | 47.76524 | 13.10358 | 30246 ft | 381 kts | 349° |
| 2026-04-16 13:17 | 47.81787 | 13.09346 | 30240 ft | 381 kts | 349° |
| 2026-04-16 13:18 | 47.87047 | 13.08334 | 30240 ft | 381 kts | 349° |
| 2026-04-16 13:18 | 47.92308 | 13.07322 | 30247 ft | 381 kts | 349° |
| 2026-04-16 13:19 | 47.97573 | 13.06305 | 30236 ft | 381 kts | 349° |
| 2026-04-16 13:19 | 48.02834 | 13.05290 | 30240 ft | 381 kts | 348° |
| 2026-04-16 13:20 | 48.08081 | 13.04271 | 30246 ft | 380 kts | 348° |
| 2026-04-16 13:20 | 48.13296 | 13.03257 | 30247 ft | 380 kts | 348° |
| 2026-04-16 13:21 | 48.18541 | 13.02238 | 30245 ft | 380 kts | 348° |
| 2026-04-16 13:21 | 48.23589 | 13.00310 | 30266 ft | 371 kts | 329° |
| 2026-04-16 13:21 | 48.25740 | 12.98236 | 30276 ft | 365 kts | 316° |
| 2026-04-16 13:22 | 48.27528 | 12.95564 | 30290 ft | 363 kts | 309° |
| 2026-04-16 13:22 | 48.30843 | 12.89872 | 30243 ft | 361 kts | 308° |
| 2026-04-16 13:23 | 48.34129 | 12.84164 | 30247 ft | 361 kts | 308° |
| 2026-04-16 13:23 | 48.37155 | 12.78236 | 30235 ft | 360 kts | 301° |
| 2026-04-16 13:24 | 48.39940 | 12.72002 | 30247 ft | 359 kts | 301° |
| 2026-04-16 13:24 | 48.42712 | 12.65761 | 30244 ft | 359 kts | 301° |
| 2026-04-16 13:25 | 48.45484 | 12.59509 | 30247 ft | 359 kts | 301° |
| 2026-04-16 13:25 | 48.48249 | 12.53253 | 30243 ft | 359 kts | 301° |
| 2026-04-16 13:26 | 48.51011 | 12.46994 | 30246 ft | 358 kts | 301° |
| 2026-04-16 13:26 | 48.53773 | 12.40726 | 30251 ft | 358 kts | 301° |
| 2026-04-16 13:27 | 48.56526 | 12.34448 | 30267 ft | 359 kts | 301° |
| 2026-04-16 13:27 | 48.59260 | 12.28203 | 30270 ft | 359 kts | 301° |
| 2026-04-16 13:28 | 48.62006 | 12.21918 | 30257 ft | 358 kts | 301° |
| 2026-04-16 13:28 | 48.64753 | 12.15618 | 30260 ft | 359 kts | 301° |
| 2026-04-16 13:29 | 48.67496 | 12.09312 | 30246 ft | 359 kts | 301° |
| 2026-04-16 13:29 | 48.70234 | 12.03003 | 30247 ft | 358 kts | 301° |
| 2026-04-16 13:30 | 48.72968 | 11.96691 | 30250 ft | 358 kts | 301° |
| 2026-04-16 13:30 | 48.75693 | 11.90386 | 30249 ft | 357 kts | 301° |
| 2026-04-16 13:31 | 48.78389 | 11.84128 | 30246 ft | 357 kts | 301° |
| 2026-04-16 13:31 | 48.81099 | 11.77824 | 30240 ft | 357 kts | 301° |
| 2026-04-16 13:32 | 48.83806 | 11.71515 | 30239 ft | 356 kts | 301° |
| 2026-04-16 13:32 | 48.86501 | 11.65209 | 30244 ft | 355 kts | 301° |
| 2026-04-16 13:33 | 48.89192 | 11.58909 | 30238 ft | 355 kts | 301° |
| 2026-04-16 13:33 | 48.91880 | 11.52599 | 30237 ft | 355 kts | 301° |
| 2026-04-16 13:34 | 48.94108 | 11.47355 | 30243 ft | 355 kts | 301° |
| 2026-04-16 13:34 | 48.97219 | 11.40018 | 30241 ft | 355 kts | 301° |
| 2026-04-16 13:35 | 48.99457 | 11.34727 | 30240 ft | 354 kts | 300° |
| 2026-04-16 13:35 | 49.02118 | 11.28424 | 30242 ft | 354 kts | 301° |
| 2026-04-16 13:36 | 49.04759 | 11.22158 | 30240 ft | 354 kts | 301° |
| 2026-04-16 13:36 | 49.07416 | 11.15845 | 30245 ft | 354 kts | 301° |
| 2026-04-16 13:37 | 49.10067 | 11.09526 | 30237 ft | 353 kts | 300° |
| 2026-04-16 13:37 | 49.12718 | 11.03192 | 30244 ft | 353 kts | 300° |
| 2026-04-16 13:38 | 49.15359 | 10.96873 | 30250 ft | 353 kts | 301° |
| 2026-04-16 13:38 | 49.17999 | 10.90541 | 30251 ft | 353 kts | 300° |
| 2026-04-16 13:38 | 49.19324 | 10.87351 | 29924 ft | 358 kts | 301° |
| 2026-04-16 13:39 | 49.20649 | 10.84163 | 29773 ft | 354 kts | 301° |
| 2026-04-16 13:39 | 49.21976 | 10.80968 | 29349 ft | 358 kts | 300° |
| 2026-04-16 13:39 | 49.23308 | 10.77746 | 28832 ft | 358 kts | 300° |
| 2026-04-16 13:39 | 49.24631 | 10.74534 | 28347 ft | 355 kts | 301° |
| 2026-04-16 13:40 | 49.25949 | 10.71362 | 27880 ft | 351 kts | 301° |
| 2026-04-16 13:40 | 49.27247 | 10.68223 | 27412 ft | 347 kts | 300° |
| 2026-04-16 13:40 | 49.28527 | 10.65117 | 26954 ft | 343 kts | 300° |
| 2026-04-16 13:40 | 49.29780 | 10.62069 | 26505 ft | 341 kts | 300° |
| 2026-04-16 13:41 | 49.31039 | 10.59011 | 26045 ft | 339 kts | 300° |
| 2026-04-16 13:41 | 49.32292 | 10.55963 | 25606 ft | 337 kts | 300° |
| 2026-04-16 13:41 | 49.33537 | 10.52931 | 25163 ft | 335 kts | 300° |
| 2026-04-16 13:41 | 49.34778 | 10.49909 | 24722 ft | 334 kts | 300° |
| 2026-04-16 13:42 | 49.36005 | 10.46910 | 24381 ft | 329 kts | 300° |
| 2026-04-16 13:42 | 49.37239 | 10.43963 | 24121 ft | 328 kts | 302° |
| 2026-04-16 13:42 | 49.38550 | 10.41093 | 23893 ft | 328 kts | 303° |
| 2026-04-16 13:42 | 49.39870 | 10.38245 | 23769 ft | 329 kts | 303° |
| 2026-04-16 13:43 | 49.41193 | 10.35374 | 23593 ft | 329 kts | 303° |
| 2026-04-16 13:43 | 49.42511 | 10.32513 | 23445 ft | 328 kts | 303° |
| 2026-04-16 13:43 | 49.43820 | 10.29649 | 23281 ft | 327 kts | 303° |
| 2026-04-16 13:43 | 49.45123 | 10.26785 | 23126 ft | 326 kts | 303° |
| 2026-04-16 13:44 | 49.46423 | 10.23927 | 22969 ft | 325 kts | 303° |
| 2026-04-16 13:44 | 49.47714 | 10.21084 | 22808 ft | 324 kts | 303° |
| 2026-04-16 13:44 | 49.49007 | 10.18238 | 22650 ft | 324 kts | 303° |
| 2026-04-16 13:44 | 49.50295 | 10.15399 | 22496 ft | 324 kts | 303° |
| 2026-04-16 13:45 | 49.51583 | 10.12558 | 22340 ft | 323 kts | 303° |
| 2026-04-16 13:45 | 49.52862 | 10.09729 | 22135 ft | 322 kts | 303° |
| 2026-04-16 13:45 | 49.54142 | 10.06895 | 21785 ft | 322 kts | 302° |
| 2026-04-16 13:45 | 49.55415 | 10.04074 | 21480 ft | 319 kts | 303° |
| 2026-04-16 13:46 | 49.56682 | 10.01266 | 21018 ft | 319 kts | 302° |
| 2026-04-16 13:46 | 49.57926 | 9.98502 | 20604 ft | 317 kts | 303° |
| 2026-04-16 13:46 | 49.59175 | 9.95724 | 20181 ft | 313 kts | 302° |
| 2026-04-16 13:46 | 49.60408 | 9.92973 | 19752 ft | 310 kts | 303° |
| 2026-04-16 13:47 | 49.61631 | 9.90252 | 19355 ft | 308 kts | 302° |
| 2026-04-16 13:47 | 49.62848 | 9.87536 | 18946 ft | 307 kts | 303° |
| 2026-04-16 13:47 | 49.64057 | 9.84835 | 18538 ft | 305 kts | 303° |
| 2026-04-16 13:47 | 49.65259 | 9.82145 | 18138 ft | 304 kts | 303° |
| 2026-04-16 13:48 | 49.66459 | 9.79462 | 17739 ft | 303 kts | 303° |
| 2026-04-16 13:48 | 49.67652 | 9.76789 | 17334 ft | 301 kts | 303° |
| 2026-04-16 13:48 | 49.68838 | 9.74135 | 16919 ft | 299 kts | 303° |
| 2026-04-16 13:48 | 49.70019 | 9.71492 | 16530 ft | 298 kts | 303° |
| 2026-04-16 13:49 | 49.71191 | 9.68858 | 16134 ft | 297 kts | 303° |
| 2026-04-16 13:49 | 49.72358 | 9.66231 | 15743 ft | 296 kts | 303° |
| 2026-04-16 13:49 | 49.73521 | 9.63609 | 15353 ft | 295 kts | 303° |
| 2026-04-16 13:49 | 49.74679 | 9.60989 | 14921 ft | 296 kts | 303° |
| 2026-04-16 13:50 | 49.75837 | 9.58377 | 14545 ft | 293 kts | 303° |
| 2026-04-16 13:50 | 49.76984 | 9.55783 | 14163 ft | 291 kts | 303° |
| 2026-04-16 13:50 | 49.78112 | 9.53234 | 13776 ft | 290 kts | 303° |
| 2026-04-16 13:50 | 49.79248 | 9.50658 | 13413 ft | 288 kts | 303° |
| 2026-04-16 13:51 | 49.80579 | 9.48363 | 13134 ft | 287 kts | 316° |
| 2026-04-16 13:51 | 49.82083 | 9.46330 | 12936 ft | 288 kts | 317° |
| 2026-04-16 13:51 | 49.83605 | 9.44324 | 12860 ft | 285 kts | 317° |
| 2026-04-16 13:51 | 49.85119 | 9.42316 | 12826 ft | 292 kts | 317° |
| 2026-04-16 13:52 | 49.86669 | 9.40259 | 12509 ft | 293 kts | 317° |
| 2026-04-16 13:52 | 49.88209 | 9.38210 | 12081 ft | 293 kts | 317° |
| 2026-04-16 13:52 | 49.89759 | 9.36146 | 11580 ft | 292 kts | 318° |
| 2026-04-16 13:52 | 49.91289 | 9.34110 | 11153 ft | 288 kts | 318° |
| 2026-04-16 13:53 | 49.92792 | 9.32099 | 10800 ft | 282 kts | 318° |
| 2026-04-16 13:53 | 49.94270 | 9.30118 | 10422 ft | 280 kts | 318° |
| 2026-04-16 13:53 | 49.95737 | 9.28148 | 10048 ft | 279 kts | 318° |
| 2026-04-16 13:53 | 49.97204 | 9.26176 | 9683 ft | 279 kts | 318° |
| 2026-04-16 13:54 | 49.98673 | 9.24192 | 9292 ft | 280 kts | 318° |
| 2026-04-16 13:54 | 50.00136 | 9.22218 | 8901 ft | 273 kts | 319° |
| 2026-04-16 13:54 | 50.01538 | 9.20325 | 8559 ft | 261 kts | 318° |
| 2026-04-16 13:54 | 50.02882 | 9.18509 | 8226 ft | 251 kts | 318° |
| 2026-04-16 13:55 | 50.04161 | 9.16778 | 7905 ft | 244 kts | 318° |
| 2026-04-16 13:55 | 50.05433 | 9.15055 | 7605 ft | 242 kts | 318° |
| 2026-04-16 13:55 | 50.06707 | 9.13325 | 7280 ft | 244 kts | 318° |
| 2026-04-16 13:55 | 50.07992 | 9.11599 | 6933 ft | 244 kts | 318° |
| 2026-04-16 13:56 | 50.09268 | 9.09878 | 6622 ft | 243 kts | 320° |
| 2026-04-16 13:56 | 50.10780 | 9.08744 | 6315 ft | 244 kts | 348° |
| 2026-04-16 13:56 | 50.12440 | 9.08259 | 6037 ft | 241 kts | 344° |
| 2026-04-16 13:56 | 50.14061 | 9.07601 | 5741 ft | 240 kts | 343° |
| 2026-04-16 13:57 | 50.15669 | 9.06946 | 5486 ft | 236 kts | 343° |
| 2026-04-16 13:57 | 50.17230 | 9.06311 | 5373 ft | 227 kts | 343° |
| 2026-04-16 13:57 | 50.18757 | 9.06047 | 5279 ft | 220 kts | 9° |
| 2026-04-16 13:58 | 50.20735 | 9.09194 | 5316 ft | 221 kts | 84° |
| 2026-04-16 13:58 | 50.20457 | 9.11518 | 5380 ft | 222 kts | 121° |
| 2026-04-16 13:58 | 50.19355 | 9.13183 | 5252 ft | 223 kts | 157° |
| 2026-04-16 13:58 | 50.17857 | 9.13550 | 5054 ft | 219 kts | 192° |
| 2026-04-16 13:59 | 50.16585 | 9.12478 | 5101 ft | 200 kts | 238° |
| 2026-04-16 13:59 | 50.16135 | 9.10568 | 5965 ft | 179 kts | 258° |
| 2026-04-16 13:59 | 50.15781 | 9.08523 | 5777 ft | 212 kts | 250° |
| 2026-04-16 13:59 | 50.15207 | 9.06361 | 5424 ft | 215 kts | 248° |
| 2026-04-16 14:00 | 50.14686 | 9.04163 | 5035 ft | 220 kts | 252° |
| 2026-04-16 14:00 | 50.14182 | 9.01846 | 4576 ft | 230 kts | 250° |
| 2026-04-16 14:00 | 50.13619 | 8.99487 | 4300 ft | 227 kts | 249° |
| 2026-04-16 14:00 | 50.13092 | 8.97278 | 4448 ft | 214 kts | 250° |
| 2026-04-16 14:01 | 50.12589 | 8.95075 | 4259 ft | 217 kts | 250° |
| 2026-04-16 14:01 | 50.12075 | 8.92874 | 4082 ft | 214 kts | 250° |
| 2026-04-16 14:01 | 50.11566 | 8.90720 | 3994 ft | 206 kts | 250° |
| 2026-04-16 14:01 | 50.11085 | 8.88657 | 4031 ft | 202 kts | 250° |
| 2026-04-16 14:02 | 50.10608 | 8.86616 | 4101 ft | 200 kts | 250° |
| 2026-04-16 14:02 | 50.10121 | 8.84533 | 3848 ft | 211 kts | 250° |
| 2026-04-16 14:02 | 50.09622 | 8.82424 | 3525 ft | 206 kts | 249° |
| 2026-04-16 14:02 | 50.09136 | 8.80370 | 3273 ft | 200 kts | 250° |
| 2026-04-16 14:03 | 50.08663 | 8.78346 | 2996 ft | 197 kts | 250° |
| 2026-04-16 14:03 | 50.08196 | 8.76357 | 2750 ft | 195 kts | 249° |
| 2026-04-16 14:03 | 50.07727 | 8.74384 | 2479 ft | 193 kts | 249° |
| 2026-04-16 14:03 | 50.07277 | 8.72481 | 2217 ft | 181 kts | 249° |
| 2026-04-16 14:04 | 50.06850 | 8.70669 | 1998 ft | 175 kts | 248° |
| 2026-04-16 14:04 | 50.06442 | 8.68944 | 1767 ft | 164 kts | 249° |
| 2026-04-16 14:04 | 50.06063 | 8.67343 | 1540 ft | 152 kts | 248° |
| 2026-04-16 14:04 | 50.05712 | 8.65866 | 1343 ft | 140 kts | 248° |
| 2026-04-16 14:05 | 50.05387 | 8.64492 | 1162 ft | 132 kts | 248° |
| 2026-04-16 14:05 | 50.05071 | 8.63146 | 1014 ft | 133 kts | 249° |
| 2026-04-16 14:05 | 50.04752 | 8.61793 | 901 ft | 135 kts | 248° |
| 2026-04-16 14:05 | 50.04417 | 8.60404 | 689 ft | 139 kts | 248° |
| 2026-04-16 14:06 | 50.04082 | 8.58980 | 456 ft | 140 kts | 248° |
| 2026-04-16 14:06 | 50.03755 | 8.57617 | 359 ft | 124 kts | 249° |
| 2026-04-16 14:06 | 50.03518 | 8.56609 | 350 ft | 68 kts | 250° |
| 2026-04-16 14:06 | 50.03437 | 8.56127 | 349 ft | 37 kts | 272° |
| 2026-04-16 14:07 | 50.03459 | 8.55867 | 344 ft | 19 kts | 280° |
| 2026-04-16 14:07 | 50.03469 | 8.55774 | 343 ft | 1 kts | 280° |
| 2026-04-16 14:07 | 50.03472 | 8.55749 | 343 ft | 4 kts | 280° |
| 2026-04-16 14:07 | 50.03484 | 8.55711 | 343 ft | 3 kts | 289° |
| 2026-04-16 14:08 | 50.03487 | 8.55645 | 344 ft | 8 kts | 274° |
| 2026-04-16 14:08 | 50.03492 | 8.55531 | 346 ft | 12 kts | 274° |
| 2026-04-16 14:08 | 50.03470 | 8.55388 | 344 ft | 15 kts | 252° |
| 2026-04-16 14:08 | 50.03431 | 8.55220 | 343 ft | 18 kts | 249° |
| 2026-04-16 14:09 | 50.03386 | 8.55027 | 341 ft | 20 kts | 250° |
| 2026-04-16 14:09 | 50.03335 | 8.54810 | 339 ft | 23 kts | 248° |
| 2026-04-16 14:09 | 50.03287 | 8.54623 | 336 ft | 13 kts | 248° |
| 2026-04-16 14:09 | 50.03299 | 8.54495 | 337 ft | 13 kts | 322° |
| 2026-04-16 14:10 | 50.03386 | 8.54439 | 339 ft | 14 kts | 340° |
| 2026-04-16 14:10 | 50.03472 | 8.54390 | 344 ft | 13 kts | 339° |
| 2026-04-16 14:10 | 50.03562 | 8.54336 | 340 ft | 14 kts | 339° |
| 2026-04-16 14:10 | 50.03656 | 8.54332 | 339 ft | 14 kts | 43° |
| 2026-04-16 14:11 | 50.03697 | 8.54477 | 341 ft | 15 kts | 70° |
| 2026-04-16 14:11 | 50.03733 | 8.54627 | 348 ft | 15 kts | 70° |
| 2026-04-16 14:11 | 50.03771 | 8.54789 | 345 ft | 17 kts | 70° |
| 2026-04-16 14:11 | 50.03813 | 8.54967 | 347 ft | 18 kts | 70° |
| 2026-04-16 14:12 | 50.03859 | 8.55160 | 355 ft | 19 kts | 69° |
| 2026-04-16 14:12 | 50.03909 | 8.55365 | 348 ft | 21 kts | 70° |
| 2026-04-16 14:12 | 50.03961 | 8.55587 | 354 ft | 23 kts | 70° |
| 2026-04-16 14:12 | 50.04014 | 8.55810 | 349 ft | 17 kts | 70° |
| 2026-04-16 14:13 | 50.04047 | 8.55942 | 352 ft | 10 kts | 64° |
| 2026-04-16 14:13 | 50.04102 | 8.55967 | 351 ft | 9 kts | 347° |
| 2026-04-16 14:13 | 50.04131 | 8.55950 | 355 ft | 0 kts | 339° |
| 2026-04-16 14:14 | 50.04142 | 8.55944 | 351 ft | 5 kts | 339° |
| 2026-04-16 14:14 | 50.04185 | 8.55918 | 358 ft | 8 kts | 340° |
| 2026-04-16 14:14 | 50.04243 | 8.55936 | 359 ft | 10 kts | 22° |
| 2026-04-16 14:14 | 50.04313 | 8.55951 | 354 ft | 11 kts | 346° |
| 2026-04-16 14:15 | 50.04387 | 8.55932 | 361 ft | 11 kts | 20° |
| 2026-04-16 14:15 | 50.04435 | 8.56043 | 356 ft | 14 kts | 70° |
| 2026-04-16 14:15 | 50.04470 | 8.56196 | 358 ft | 16 kts | 70° |
| 2026-04-16 14:15 | 50.04507 | 8.56345 | 358 ft | 13 kts | 70° |
| 2026-04-16 14:16 | 50.04553 | 8.56442 | 355 ft | 12 kts | 26° |
| 2026-04-16 14:16 | 50.04633 | 8.56500 | 355 ft | 12 kts | 25° |
| 2026-04-16 14:16 | 50.04699 | 8.56550 | 355 ft | 9 kts | 33° |
| 2026-04-16 14:16 | 50.04705 | 8.56641 | 358 ft | 9 kts | 112° |
| 2026-04-16 14:17 | 50.04687 | 8.56700 | 359 ft | 0 kts | 115° |